createdAt,value
2019-04-10T00:01:20.564Z,45.50
2019-04-10T00:03:48.322Z,52.00
2019-04-10T00:06:18.088Z,51.83
2019-04-10T00:08:44.828Z,45.20
2019-04-10T00:11:12.312Z,50.20
2019-04-10T00:13:39.708Z,38.23
2019-04-10T00:16:07.647Z,41.83
2019-04-10T00:18:35.365Z,55.77
2019-04-10T00:21:02.938Z,45.10
2019-04-10T00:23:31.093Z,50.60
2019-04-10T00:25:59.335Z,68.80
2019-04-10T00:28:27.547Z,49.87
2019-04-10T00:30:55.659Z,54.23
2019-04-10T00:33:22.977Z,50.80
2019-04-10T00:35:50.236Z,38.47
2019-04-10T00:38:17.709Z,49.60
2019-04-10T00:40:45.811Z,27.77
2019-04-10T00:43:13.028Z,53.77
2019-04-10T00:45:40.380Z,45.73
2019-04-10T00:48:07.886Z,47.10
2019-04-10T00:50:35.620Z,51.33
2019-04-10T00:53:02.999Z,43.57
2019-04-10T00:55:30.323Z,43.20
2019-04-10T00:57:58.157Z,47.83
2019-04-10T01:00:25.575Z,53.10
2019-04-10T01:02:53.335Z,36.03
2019-04-10T01:05:20.801Z,55.43
2019-04-10T01:07:48.592Z,49.80
2019-04-10T01:10:16.085Z,41.00
2019-04-10T01:12:44.007Z,45.97
2019-04-10T01:15:12.065Z,52.47
2019-04-10T01:17:40.251Z,63.07
2019-04-10T01:20:07.815Z,44.27
2019-04-10T01:22:35.111Z,26.43
2019-04-10T01:25:02.361Z,50.73
2019-04-10T01:27:29.608Z,50.73
2019-04-10T01:29:57.869Z,20.17
2019-04-10T01:32:25.822Z,45.40
2019-04-10T01:34:53.911Z,51.43
2019-04-10T01:37:21.253Z,40.40
2019-04-10T01:39:48.652Z,35.10
2019-04-10T01:42:16.567Z,46.20
2019-04-10T01:44:44.832Z,45.00
2019-04-10T01:47:13.032Z,23.43
2019-04-10T01:49:40.521Z,50.17
2019-04-10T01:52:07.628Z,51.30
2019-04-10T01:54:35.339Z,54.07
2019-04-10T01:57:02.727Z,42.00
2019-04-10T01:59:32.133Z,31.53
2019-04-10T02:02:28.168Z,26.27
2019-04-10T02:04:56.674Z,29.63
2019-04-10T02:07:24.462Z,50.77
2019-04-10T02:09:51.972Z,29.70
2019-04-10T02:12:19.247Z,55.57
2019-04-10T02:14:46.831Z,33.57
2019-04-10T02:17:14.733Z,68.20
2019-04-10T02:19:42.673Z,38.13
2019-04-10T02:22:10.001Z,60.17
2019-04-10T02:24:37.628Z,39.07
2019-04-10T02:27:05.757Z,45.60
2019-04-10T02:29:33.584Z,38.00
2019-04-10T02:32:02.123Z,52.87
2019-04-10T02:34:30.676Z,42.00
2019-04-10T02:36:58.611Z,48.47
2019-04-10T02:39:35.151Z,48.03
2019-04-10T02:41:56.205Z,55.50
2019-04-10T02:44:26.000Z,48.13
2019-04-10T02:46:54.884Z,54.00
2019-04-10T02:49:22.502Z,54.40
2019-04-10T02:51:51.796Z,57.73
2019-04-10T02:54:19.497Z,43.10
2019-04-10T02:56:47.933Z,29.43
2019-04-10T02:59:15.956Z,53.50
2019-04-10T03:01:44.032Z,42.47
2019-04-10T03:04:13.244Z,37.30
2019-04-10T03:06:40.553Z,57.00
2019-04-10T03:09:26.071Z,31.33
2019-04-10T03:11:37.010Z,61.13
2019-04-10T03:14:04.968Z,49.30
2019-04-10T03:16:32.262Z,45.83
2019-04-10T03:18:59.483Z,66.07
2019-04-10T03:21:27.020Z,62.93
2019-04-10T03:23:54.569Z,47.97
2019-04-10T03:26:21.731Z,48.40
2019-04-10T03:28:49.381Z,54.30
2019-04-10T03:31:16.681Z,39.30
2019-04-10T03:34:05.976Z,46.80
2019-04-10T03:36:37.926Z,44.87
2019-04-10T03:39:07.944Z,53.67
2019-04-10T03:41:36.636Z,47.67
2019-04-10T03:44:04.265Z,45.60
2019-04-10T03:46:31.484Z,45.37
2019-04-10T03:48:58.761Z,34.77
2019-04-10T03:51:25.988Z,42.00
2019-04-10T03:53:54.214Z,32.97
2019-04-10T03:56:21.556Z,30.33
2019-04-10T03:58:49.547Z,36.83
2019-04-10T04:01:16.930Z,40.97
2019-04-10T04:03:44.734Z,24.67
2019-04-10T04:06:12.166Z,38.83
2019-04-10T04:08:39.510Z,43.03
2019-04-10T04:11:07.185Z,46.13
2019-04-10T04:13:35.459Z,53.30
2019-04-10T04:16:02.819Z,37.13
2019-04-10T04:18:30.042Z,38.63
2019-04-10T04:20:57.284Z,16.60
2019-04-10T04:23:25.654Z,37.33
2019-04-10T04:25:52.997Z,31.30
2019-04-10T04:28:20.180Z,38.10
2019-04-10T04:30:47.432Z,43.67
2019-04-10T04:33:15.466Z,26.33
2019-04-10T04:35:42.893Z,48.47
2019-04-10T04:38:11.295Z,45.37
2019-04-10T04:40:38.902Z,38.00
2019-04-10T04:43:06.484Z,39.10
2019-04-10T04:45:33.785Z,41.73
2019-04-10T04:48:01.833Z,20.20
2019-04-10T04:50:29.289Z,54.67
2019-04-10T04:52:56.929Z,46.80
2019-04-10T04:55:24.203Z,55.00
2019-04-10T04:57:51.403Z,36.43
2019-04-10T05:00:18.849Z,35.17
2019-04-10T05:02:46.938Z,37.37
2019-04-10T05:05:14.344Z,59.97
2019-04-10T05:07:41.793Z,38.97
2019-04-10T05:10:09.642Z,42.20
2019-04-10T05:12:38.026Z,29.27
2019-04-10T05:15:06.569Z,30.77
2019-04-10T05:17:35.150Z,39.50
2019-04-10T05:20:03.017Z,34.83
2019-04-10T05:22:31.611Z,48.03
2019-04-10T05:24:59.057Z,35.23
2019-04-10T05:27:26.669Z,45.80
2019-04-10T05:29:54.022Z,52.07
2019-04-10T05:32:21.577Z,39.00
2019-04-10T05:34:48.830Z,51.40
2019-04-10T05:37:16.125Z,35.47
2019-04-10T05:39:49.154Z,42.43
2019-04-10T05:42:12.778Z,31.63
2019-04-10T05:44:40.234Z,43.93
2019-04-10T05:47:07.585Z,37.37
2019-04-10T05:49:35.168Z,54.23
2019-04-10T05:52:02.273Z,30.63
2019-04-10T05:54:29.448Z,35.73
2019-04-10T05:56:56.909Z,48.00
2019-04-10T05:59:24.288Z,33.40
2019-04-10T06:01:52.618Z,47.63
2019-04-10T06:04:20.871Z,43.37
2019-04-10T06:06:48.545Z,34.33
2019-04-10T06:09:16.332Z,41.83
2019-04-10T06:11:44.547Z,36.00
2019-04-10T06:14:13.561Z,22.50
2019-04-10T06:16:40.877Z,36.87
2019-04-10T06:19:09.411Z,34.73
2019-04-10T06:21:37.608Z,25.90
2019-04-10T06:24:05.848Z,39.60
2019-04-10T06:26:33.109Z,33.83
2019-04-10T06:29:00.369Z,56.47
2019-04-10T06:31:28.495Z,38.70
2019-04-10T06:33:56.298Z,30.47
2019-04-10T06:36:23.577Z,23.33
2019-04-10T06:38:51.196Z,30.30
2019-04-10T06:41:19.225Z,28.03
2019-04-10T06:43:47.467Z,25.70
2019-04-10T06:46:14.763Z,31.63
2019-04-10T06:48:42.426Z,26.30
2019-04-10T06:51:10.222Z,31.77
2019-04-10T06:53:37.468Z,21.33
2019-04-10T06:56:04.894Z,31.40
2019-04-10T06:58:32.072Z,28.10
2019-04-10T07:01:01.501Z,31.07
2019-04-10T07:03:44.854Z,24.23
2019-04-10T07:06:07.209Z,30.13
2019-04-10T07:08:27.521Z,38.77
2019-04-10T07:11:03.373Z,32.10
2019-04-10T07:13:23.974Z,30.07
2019-04-10T07:15:54.446Z,21.57
2019-04-10T07:18:21.912Z,15.30
2019-04-10T07:20:50.358Z,32.20
2019-04-10T07:23:22.400Z,20.90
2019-04-10T07:25:48.328Z,20.50
2019-04-10T07:28:17.386Z,19.03
2019-04-10T07:30:45.685Z,22.10
2019-04-10T07:33:16.546Z,31.87
2019-04-10T07:35:42.321Z,22.07
2019-04-10T07:38:09.751Z,30.63
2019-04-10T07:40:37.011Z,28.63
2019-04-10T07:43:04.651Z,15.53
2019-04-10T07:45:31.886Z,19.60
2019-04-10T07:48:00.331Z,20.87
2019-04-10T07:50:28.183Z,38.07
2019-04-10T07:52:55.649Z,21.00
2019-04-10T07:55:23.888Z,20.67
2019-04-10T07:57:51.765Z,34.27
2019-04-10T08:00:20.119Z,20.30
2019-04-10T08:02:47.479Z,25.37
2019-04-10T08:05:14.720Z,33.07
2019-04-10T08:07:42.965Z,17.33
2019-04-10T08:10:10.337Z,18.27
2019-04-10T08:12:45.473Z,53.70
2019-04-10T08:15:07.028Z,23.80
2019-04-10T08:17:34.575Z,32.20
2019-04-10T08:20:02.199Z,21.93
2019-04-10T08:22:29.455Z,14.83
2019-04-10T08:24:56.708Z,22.77
2019-04-10T08:27:23.970Z,17.67
2019-04-10T08:29:51.204Z,17.87
2019-04-10T08:32:19.046Z,18.23
2019-04-10T08:34:47.121Z,17.80
2019-04-10T08:37:14.538Z,23.73
2019-04-10T08:39:46.001Z,18.80
2019-04-10T08:42:11.141Z,15.43
2019-04-10T08:44:38.412Z,12.90
2019-04-10T08:47:06.718Z,15.10
2019-04-10T08:49:33.845Z,19.80
2019-04-10T08:52:01.130Z,9.67
2019-04-10T08:54:28.371Z,17.13
2019-04-10T08:56:56.794Z,18.70
2019-04-10T08:59:24.097Z,13.50
2019-04-10T09:01:51.220Z,15.30
2019-04-10T09:04:18.939Z,18.57
2019-04-10T09:06:47.294Z,10.03
2019-04-10T09:09:15.307Z,8.37
2019-04-10T09:11:43.051Z,8.83
2019-04-10T09:14:10.704Z,14.17
2019-04-10T09:16:38.562Z,11.00
2019-04-10T09:19:05.892Z,10.90
2019-04-10T09:21:33.149Z,16.37
2019-04-10T09:24:00.718Z,9.23
2019-04-10T09:26:28.619Z,19.40
2019-04-10T09:28:57.076Z,14.00
2019-04-10T09:31:25.912Z,24.93
2019-04-10T09:33:53.721Z,14.90
2019-04-10T09:36:21.528Z,16.90
2019-04-10T09:38:48.765Z,10.33
2019-04-10T09:41:16.075Z,18.73
2019-04-10T09:43:43.247Z,7.87
2019-04-10T09:46:12.761Z,9.47
2019-04-10T09:48:40.127Z,11.13
2019-04-10T09:51:07.639Z,19.27
2019-04-10T09:53:35.199Z,10.00
2019-04-10T09:56:03.197Z,12.37
2019-04-10T09:58:30.355Z,10.30
2019-04-10T10:01:01.456Z,9.63
2019-04-10T10:03:28.861Z,8.97
2019-04-10T10:05:57.113Z,10.43
2019-04-10T10:08:24.855Z,10.03
2019-04-10T10:10:52.054Z,16.10
2019-04-10T10:13:19.527Z,21.67
2019-04-10T10:15:46.804Z,22.47
2019-04-10T10:18:14.096Z,14.03
2019-04-10T10:20:41.388Z,9.17
2019-04-10T10:23:09.532Z,17.00
2019-04-10T10:25:37.489Z,9.87
2019-04-10T10:28:05.003Z,13.33
2019-04-10T10:30:33.600Z,18.50
2019-04-10T10:33:01.463Z,8.90
2019-04-10T10:35:29.342Z,12.43
2019-04-10T10:37:56.863Z,11.70
2019-04-10T10:40:24.243Z,8.03
2019-04-10T10:42:52.039Z,10.40
2019-04-10T10:45:20.714Z,26.43
2019-04-10T10:47:48.604Z,5.70
2019-04-10T10:50:17.110Z,14.77
2019-04-10T10:52:44.403Z,17.83
2019-04-10T10:55:11.792Z,7.37
2019-04-10T10:57:39.609Z,10.17
2019-04-10T11:00:08.313Z,18.97
2019-04-10T11:02:37.845Z,11.53
2019-04-10T11:05:07.095Z,14.97
2019-04-10T11:07:35.265Z,15.40
2019-04-10T11:10:04.255Z,11.77
2019-04-10T11:12:31.473Z,8.57
2019-04-10T11:14:59.442Z,11.67
2019-04-10T11:17:28.182Z,10.60
2019-04-10T11:19:55.974Z,16.00
2019-04-10T11:22:25.672Z,8.23
2019-04-10T11:24:53.343Z,12.50
2019-04-10T11:27:20.723Z,9.10
2019-04-10T11:29:48.031Z,8.90
2019-04-10T11:32:15.253Z,11.33
2019-04-10T11:34:44.377Z,15.70
2019-04-10T11:37:23.459Z,10.60
2019-04-10T11:39:43.454Z,21.70
2019-04-10T11:42:10.165Z,12.93
2019-04-10T11:44:39.599Z,10.60
2019-04-10T11:47:09.527Z,20.37
2019-04-10T11:49:36.833Z,10.27
2019-04-10T11:52:06.270Z,11.60
2019-04-10T11:54:37.236Z,15.90
2019-04-10T11:57:04.294Z,10.80
2019-04-10T11:59:34.181Z,16.30
2019-04-10T12:04:36.041Z,9.63
2019-04-10T12:07:01.511Z,11.50
2019-04-10T12:11:57.358Z,16.50
2019-04-10T12:14:25.606Z,15.00
2019-04-10T12:16:53.577Z,12.43
2019-04-10T12:19:23.556Z,13.40
2019-04-10T12:21:50.370Z,10.10
2019-04-10T12:24:18.283Z,9.13
2019-04-10T12:26:46.388Z,5.73
2019-04-10T12:29:14.119Z,10.47
2019-04-10T12:31:41.939Z,20.23
2019-04-10T12:34:09.260Z,17.63
2019-04-10T12:36:36.792Z,7.33
2019-04-10T12:39:07.828Z,12.30
2019-04-10T12:41:35.274Z,11.63
2019-04-10T12:44:03.288Z,9.47
2019-04-10T12:46:30.380Z,5.30
2019-04-10T12:49:00.876Z,7.70
2019-04-10T12:51:27.936Z,8.13
2019-04-10T12:53:56.145Z,8.70
2019-04-10T12:56:24.094Z,10.40
2019-04-10T12:58:52.966Z,10.90
2019-04-10T13:01:20.537Z,8.87
2019-04-10T13:03:48.007Z,8.57
2019-04-10T13:06:15.772Z,7.43
2019-04-10T13:08:55.694Z,4.97
2019-04-10T13:11:12.325Z,7.40
2019-04-10T13:13:39.582Z,11.20
2019-04-10T13:16:07.806Z,10.13
2019-04-10T13:18:35.045Z,7.13
2019-04-10T13:21:04.212Z,11.33
2019-04-10T13:23:31.436Z,8.63
2019-04-10T13:26:01.753Z,6.10
2019-04-10T13:28:29.662Z,6.17
2019-04-10T13:30:58.446Z,6.33
2019-04-10T13:33:26.732Z,9.57
2019-04-10T13:35:54.037Z,8.17
2019-04-10T13:38:27.682Z,17.30
2019-04-10T13:40:50.563Z,12.80
2019-04-10T13:43:18.046Z,13.33
2019-04-10T13:45:45.810Z,7.07
2019-04-10T13:48:14.481Z,8.00
2019-04-10T13:50:43.108Z,12.90
2019-04-10T13:53:10.460Z,6.83
2019-04-10T13:55:38.200Z,12.17
2019-04-10T13:58:06.643Z,9.70
2019-04-10T14:00:39.962Z,22.20
2019-04-10T14:03:07.334Z,8.90
2019-04-10T14:05:34.764Z,9.13
2019-04-10T14:08:02.252Z,12.37
2019-04-10T14:10:29.551Z,8.60
2019-04-10T14:12:57.973Z,9.10
2019-04-10T14:15:27.222Z,6.77
2019-04-10T14:17:54.770Z,6.83
2019-04-10T14:20:22.167Z,10.40
2019-04-10T14:22:55.697Z,7.73
2019-04-10T14:25:30.292Z,9.70
2019-04-10T14:27:57.848Z,15.20
2019-04-10T14:30:33.466Z,14.97
2019-04-10T14:33:00.917Z,9.00
2019-04-10T14:35:29.484Z,8.80
2019-04-10T14:37:56.931Z,9.07
2019-04-10T14:40:24.393Z,8.10
2019-04-10T14:42:51.816Z,4.80
2019-04-10T14:45:19.375Z,12.53
2019-04-10T14:47:47.637Z,11.33
2019-04-10T14:50:15.729Z,5.47
2019-04-10T14:52:43.311Z,10.60
2019-04-10T14:55:10.689Z,9.20
2019-04-10T14:57:39.105Z,5.10
2019-04-10T15:00:10.446Z,14.70
2019-04-10T15:02:39.641Z,9.80
2019-04-10T15:05:08.077Z,7.47
2019-04-10T15:07:35.945Z,11.30
2019-04-10T15:10:03.596Z,9.90
2019-04-10T15:12:30.747Z,15.43
2019-04-10T15:14:58.036Z,10.63
2019-04-10T15:17:25.304Z,9.20
2019-04-10T15:19:53.616Z,7.10
2019-04-10T15:22:21.220Z,10.90
2019-04-10T15:24:49.647Z,16.70
2019-04-10T15:27:17.343Z,7.90
2019-04-10T15:29:44.984Z,8.73
2019-04-10T15:32:12.773Z,13.90
2019-04-10T15:34:40.193Z,4.87
2019-04-10T15:37:07.425Z,6.97
2019-04-10T15:39:38.365Z,8.30
2019-04-10T15:42:03.767Z,20.33
2019-04-10T15:44:32.302Z,9.20
2019-04-10T15:47:12.606Z,7.80
2019-04-10T15:49:30.647Z,10.97
2019-04-10T15:51:57.852Z,9.43
2019-04-10T15:54:25.667Z,5.93
2019-04-10T15:56:54.085Z,6.73
2019-04-10T15:59:21.907Z,8.70
2019-04-10T16:01:49.393Z,9.10
2019-04-10T16:04:17.093Z,7.33
2019-04-10T16:06:45.223Z,13.40
2019-04-10T16:09:14.636Z,11.67
2019-04-10T16:11:48.396Z,8.97
2019-04-10T16:14:22.018Z,12.77
2019-04-10T16:17:06.829Z,8.73
2019-04-10T16:19:42.993Z,5.27
2019-04-10T16:22:45.257Z,3.37
2019-04-10T16:25:25.533Z,16.47
2019-04-10T16:27:53.588Z,8.30
2019-04-10T16:30:24.175Z,11.63
2019-04-10T16:32:52.316Z,7.17
2019-04-10T16:35:20.885Z,3.10
2019-04-10T16:37:49.429Z,10.30
2019-04-10T16:40:16.788Z,8.23
2019-04-10T16:42:44.035Z,13.63
2019-04-10T16:45:11.773Z,6.77
2019-04-10T16:47:38.979Z,11.70
2019-04-10T16:50:06.685Z,9.80
2019-04-10T16:52:34.002Z,10.63
2019-04-10T16:55:01.265Z,9.67
2019-04-10T16:57:29.031Z,8.57
2019-04-10T16:59:57.387Z,6.67
2019-04-10T17:02:24.838Z,7.23
2019-04-10T17:04:52.212Z,5.23
2019-04-10T17:07:21.057Z,11.03
2019-04-10T17:09:49.937Z,8.07
2019-04-10T17:12:17.817Z,5.20
2019-04-10T17:14:45.802Z,4.33
2019-04-10T17:17:13.183Z,9.83
2019-04-10T17:19:49.104Z,9.83
2019-04-10T17:22:09.483Z,9.20
2019-04-10T17:24:37.581Z,16.77
2019-04-10T17:27:06.246Z,6.97
2019-04-10T17:29:33.904Z,4.77
2019-04-10T17:32:02.564Z,5.00
2019-04-10T17:34:30.524Z,8.00
2019-04-10T17:36:59.075Z,6.40
2019-04-10T17:39:27.160Z,6.53
2019-04-10T17:41:55.631Z,7.20
2019-04-10T17:44:23.542Z,10.40
2019-04-10T17:46:51.256Z,8.20
2019-04-10T17:49:19.269Z,6.10
2019-04-10T17:51:46.913Z,10.60
2019-04-10T17:54:14.161Z,8.57
2019-04-10T17:56:41.440Z,8.67
2019-04-10T17:59:09.812Z,5.00
2019-04-10T18:01:37.328Z,5.50
2019-04-10T18:04:05.599Z,7.43
2019-04-10T18:06:33.325Z,5.43
2019-04-10T18:09:01.202Z,7.40
2019-04-10T18:11:28.629Z,7.37
2019-04-10T18:13:55.791Z,7.27
2019-04-10T18:16:23.144Z,4.63
2019-04-10T18:18:51.698Z,5.27
2019-04-10T18:21:19.021Z,12.07
2019-04-10T18:23:47.374Z,7.77
2019-04-10T18:26:14.731Z,14.83
2019-04-10T18:28:41.916Z,5.87
2019-04-10T18:31:10.259Z,11.37
2019-04-10T18:33:38.466Z,7.23
2019-04-10T18:36:07.038Z,4.10
2019-04-10T18:38:35.426Z,6.00
2019-04-10T18:41:05.748Z,8.83
2019-04-10T18:43:32.049Z,7.90
2019-04-10T18:46:07.874Z,5.60
2019-04-10T18:48:30.213Z,5.30
2019-04-10T18:50:57.723Z,12.30
2019-04-10T18:53:25.096Z,6.90
2019-04-10T18:55:52.382Z,12.60
2019-04-10T18:58:23.442Z,10.20
2019-04-10T19:01:11.448Z,8.10
2019-04-10T19:03:56.046Z,7.13
2019-04-10T19:06:24.631Z,6.97
2019-04-10T19:09:04.986Z,4.70
2019-04-10T19:11:25.970Z,7.20
2019-04-10T19:13:50.974Z,7.30
2019-04-10T19:16:19.571Z,7.97
2019-04-10T19:18:47.989Z,5.03
2019-04-10T19:21:15.614Z,6.77
2019-04-10T19:23:43.418Z,5.17
2019-04-10T19:26:13.792Z,4.47
2019-04-10T19:28:43.411Z,12.23
2019-04-10T19:31:18.948Z,5.17
2019-04-10T19:33:43.612Z,4.10
2019-04-10T19:36:11.885Z,11.73
2019-04-10T19:38:39.357Z,6.80
2019-04-10T19:41:14.122Z,7.10
2019-04-10T19:43:35.683Z,5.60
2019-04-10T19:46:04.090Z,7.97
2019-04-10T19:48:31.513Z,7.37
2019-04-10T19:50:59.645Z,6.80
2019-04-10T19:53:27.138Z,5.17
2019-04-10T19:55:54.341Z,6.83
2019-04-10T19:58:21.839Z,7.30
2019-04-10T20:00:49.227Z,4.30
2019-04-10T20:03:16.580Z,4.57
2019-04-10T20:05:43.953Z,4.43
2019-04-10T20:08:13.077Z,6.03
2019-04-10T20:10:41.502Z,5.30
2019-04-10T20:13:08.935Z,6.40
2019-04-10T20:15:36.359Z,4.23
2019-04-10T20:18:04.308Z,9.80
2019-04-10T20:20:31.360Z,6.17
2019-04-10T20:22:58.885Z,5.53
2019-04-10T20:25:26.256Z,10.47
2019-04-10T20:27:53.623Z,7.33
2019-04-10T20:30:23.635Z,7.37
2019-04-10T20:32:51.012Z,7.10
2019-04-10T20:35:18.292Z,7.70
2019-04-10T20:37:47.018Z,8.77
2019-04-10T20:40:14.304Z,6.60
2019-04-10T20:42:42.591Z,8.40
2019-04-10T20:45:11.315Z,5.43
2019-04-10T20:47:39.296Z,4.53
2019-04-10T20:50:07.800Z,7.60
2019-04-10T20:52:35.157Z,6.13
2019-04-10T20:55:05.738Z,15.13
2019-04-10T20:57:32.943Z,12.93
2019-04-10T21:00:01.667Z,8.70
2019-04-10T21:02:29.061Z,8.40
2019-04-10T21:05:05.221Z,8.33
2019-04-10T21:07:25.670Z,7.20
2019-04-10T21:09:54.513Z,7.27
2019-04-10T21:12:21.840Z,4.30
2019-04-10T21:14:49.275Z,5.43
2019-04-10T21:17:16.500Z,9.20
2019-04-10T21:19:45.375Z,7.10
2019-04-10T21:22:13.756Z,5.70
2019-04-10T21:24:41.294Z,14.80
2019-04-10T21:27:09.146Z,7.63
2019-04-10T21:30:07.883Z,22.10
2019-04-10T21:32:52.903Z,17.23
2019-04-10T21:35:25.049Z,13.43
2019-04-10T21:37:52.927Z,12.03
2019-04-10T21:40:20.713Z,9.13
2019-04-10T21:42:47.997Z,6.20
2019-04-10T21:45:15.933Z,7.87
2019-04-10T21:47:44.010Z,8.10
2019-04-10T21:50:13.111Z,10.10
2019-04-10T21:52:41.370Z,8.60
2019-04-10T21:55:08.660Z,11.00
2019-04-10T21:57:36.274Z,13.03
2019-04-10T22:00:04.694Z,11.90
2019-04-10T22:02:31.968Z,12.63
2019-04-10T22:04:59.638Z,15.10
2019-04-10T22:07:50.312Z,12.60
2019-04-10T22:10:37.951Z,7.97
2019-04-10T22:13:05.894Z,19.17
2019-04-10T22:15:39.286Z,16.27
2019-04-10T22:18:07.289Z,12.13
2019-04-10T22:20:34.679Z,10.23
2019-04-10T22:23:02.131Z,17.63
2019-04-10T22:25:29.816Z,9.90
2019-04-10T22:27:58.347Z,22.70
2019-04-10T22:30:25.833Z,13.80
2019-04-10T22:32:53.434Z,3.83
2019-04-10T22:35:21.604Z,11.67
2019-04-10T22:37:48.780Z,7.10
2019-04-10T22:40:17.273Z,14.67
2019-04-10T22:42:47.034Z,22.40
2019-04-10T22:45:26.179Z,5.90
2019-04-10T22:47:54.585Z,11.90
2019-04-10T22:50:22.385Z,12.97
2019-04-10T22:52:50.754Z,12.70
2019-04-10T22:55:17.948Z,15.23
2019-04-10T22:57:46.329Z,18.60
2019-04-10T23:00:20.074Z,18.83
2019-04-10T23:02:48.489Z,11.63
2019-04-10T23:05:16.277Z,12.73
2019-04-10T23:07:43.517Z,9.43
2019-04-10T23:10:13.214Z,15.50
2019-04-10T23:12:52.246Z,12.30
2019-04-10T23:15:11.331Z,14.00
2019-04-10T23:17:39.005Z,14.70
2019-04-10T23:20:06.797Z,12.53
2019-04-10T23:22:34.044Z,15.90
2019-04-10T23:25:02.469Z,14.40
2019-04-10T23:27:30.167Z,16.23
2019-04-10T23:29:57.270Z,17.90
2019-04-10T23:32:24.419Z,15.33
2019-04-10T23:34:52.485Z,11.90
2019-04-10T23:37:20.541Z,20.00
2019-04-10T23:39:48.214Z,17.23
2019-04-10T23:42:15.445Z,13.30
2019-04-10T23:44:42.939Z,13.77
2019-04-10T23:47:10.272Z,20.10
2019-04-10T23:49:37.439Z,17.67
2019-04-10T23:52:04.539Z,13.60
2019-04-10T23:54:31.568Z,13.93
2019-04-10T23:56:58.891Z,15.50
2019-04-10T23:59:26.718Z,16.47
